createdAt,value
2023-10-14T00:02:20.153Z,88.70
2023-10-14T00:04:48.147Z,85.60
2023-10-14T00:07:19.004Z,83.20
2023-10-14T00:09:45.753Z,82.00
2023-10-14T00:12:15.820Z,81.30
2023-10-14T00:14:46.277Z,80.70
2023-10-14T00:17:22.162Z,81.50
2023-10-14T00:19:54.861Z,80.80
2023-10-14T00:22:21.692Z,81.00
2023-10-14T00:24:50.349Z,80.60
2023-10-14T00:27:17.475Z,80.30
2023-10-14T00:29:44.139Z,80.50
2023-10-14T00:32:12.198Z,80.00
2023-10-14T00:34:38.907Z,79.70
2023-10-14T00:37:09.495Z,79.30
2023-10-14T00:39:36.360Z,79.10
2023-10-14T00:42:04.150Z,79.50
2023-10-14T00:44:30.862Z,79.00
2023-10-14T00:46:57.551Z,79.00
2023-10-14T00:49:37.041Z,79.90
2023-10-14T00:52:20.827Z,79.70
2023-10-14T00:54:48.012Z,79.70
2023-10-14T00:57:17.427Z,79.80
2023-10-14T00:59:44.997Z,80.20
2023-10-14T01:02:11.948Z,80.10
2023-10-14T01:04:41.519Z,80.90
2023-10-14T01:07:18.243Z,80.80
2023-10-14T01:09:47.717Z,81.70
2023-10-14T01:12:28.997Z,82.20
2023-10-14T01:15:00.104Z,82.70
2023-10-14T01:17:31.328Z,83.30
2023-10-14T01:20:22.344Z,84.00
2023-10-14T01:22:52.470Z,86.10
2023-10-14T01:25:20.667Z,88.40
2023-10-14T01:27:47.471Z,89.70
2023-10-14T01:30:21.610Z,90.40
2023-10-14T01:32:48.434Z,90.90
2023-10-14T01:35:27.752Z,91.30
2023-10-14T01:37:59.108Z,91.50
2023-10-14T01:40:29.445Z,91.70
2023-10-14T01:43:06.866Z,91.90
2023-10-14T01:45:41.260Z,91.90
2023-10-14T01:48:11.553Z,91.90
2023-10-14T01:50:39.313Z,92.20
2023-10-14T01:53:12.468Z,92.00
2023-10-14T01:55:42.245Z,92.00
2023-10-14T01:58:18.611Z,91.90
2023-10-14T02:00:47.671Z,91.80
2023-10-14T02:03:18.915Z,91.90
2023-10-14T02:05:45.679Z,91.70
2023-10-14T02:08:15.472Z,91.70
2023-10-14T02:10:47.780Z,91.70
2023-10-14T02:13:15.873Z,91.70
2023-10-14T02:15:47.560Z,91.70
2023-10-14T02:18:14.319Z,91.60
2023-10-14T02:20:57.463Z,91.80
2023-10-14T02:23:50.921Z,92.00
2023-10-14T02:26:25.469Z,92.00
2023-10-14T02:28:56.018Z,92.10
2023-10-14T02:31:29.727Z,92.30
2023-10-14T02:33:57.100Z,92.30
2023-10-14T02:36:29.632Z,92.30
2023-10-14T02:38:57.341Z,92.40
2023-10-14T02:41:27.911Z,92.40
2023-10-14T02:44:09.809Z,92.50
2023-10-14T02:46:43.869Z,92.40
2023-10-14T02:49:15.048Z,92.60
2023-10-14T02:51:44.318Z,92.60
2023-10-14T02:54:27.635Z,92.60
2023-10-14T02:56:58.275Z,92.50
2023-10-14T02:59:52.199Z,92.60
2023-10-14T03:02:49.477Z,92.70
2023-10-14T03:05:34.204Z,93.00
2023-10-14T03:08:10.211Z,92.90
2023-10-14T03:10:41.136Z,93.00
2023-10-14T03:13:13.322Z,92.90
2023-10-14T03:15:43.032Z,93.00
2023-10-14T03:18:13.907Z,93.10
2023-10-14T03:20:40.589Z,93.00
2023-10-14T03:23:24.712Z,93.10
2023-10-14T03:25:53.154Z,93.20
2023-10-14T03:28:26.228Z,93.00
2023-10-14T03:30:57.624Z,93.00
2023-10-14T03:33:25.199Z,93.00
2023-10-14T03:35:58.501Z,93.10
2023-10-14T03:38:34.253Z,93.00
2023-10-14T03:41:05.172Z,93.00
2023-10-14T03:43:45.426Z,93.00
2023-10-14T03:46:25.062Z,92.90
2023-10-14T03:48:55.932Z,93.10
2023-10-14T03:51:26.765Z,93.20
2023-10-14T03:53:54.515Z,93.20
2023-10-14T03:56:26.818Z,93.40
2023-10-14T03:58:58.513Z,93.50
2023-10-14T04:01:30.172Z,93.50
2023-10-14T04:03:57.178Z,93.60
2023-10-14T04:06:24.487Z,93.80
2023-10-14T04:08:51.129Z,93.90
2023-10-14T04:11:29.165Z,94.00
2023-10-14T04:14:25.284Z,94.10
2023-10-14T04:17:10.278Z,94.10
2023-10-14T04:19:46.234Z,94.20
2023-10-14T04:22:26.256Z,94.20
2023-10-14T04:25:00.466Z,94.30
2023-10-14T04:27:30.074Z,94.30
2023-10-14T04:30:12.188Z,94.40
2023-10-14T04:32:57.904Z,94.40
2023-10-14T04:35:25.374Z,94.40
2023-10-14T04:37:52.584Z,94.30
2023-10-14T04:40:35.370Z,94.30
2023-10-14T04:43:14.407Z,94.50
2023-10-14T04:45:46.978Z,94.50
2023-10-14T04:48:16.291Z,94.60
2023-10-14T04:50:43.346Z,94.70
2023-10-14T04:53:14.452Z,94.90
2023-10-14T04:55:44.549Z,94.90
2023-10-14T04:58:24.358Z,94.90
2023-10-14T05:00:53.755Z,95.00
2023-10-14T05:03:23.721Z,95.10
2023-10-14T05:05:53.596Z,95.10
2023-10-14T05:08:23.468Z,95.10
2023-10-14T05:10:53.021Z,95.20
2023-10-14T05:13:33.262Z,95.40
2023-10-14T05:16:18.937Z,95.50
2023-10-14T05:19:06.221Z,95.70
2023-10-14T05:21:36.627Z,95.90
2023-10-14T05:24:07.567Z,96.10
2023-10-14T05:26:37.541Z,96.30
2023-10-14T05:29:12.464Z,96.40
2023-10-14T05:31:39.306Z,96.60
2023-10-14T05:34:06.349Z,96.70
2023-10-14T05:36:36.115Z,96.80
2023-10-14T05:39:03.883Z,97.00
2023-10-14T05:41:31.450Z,97.40
2023-10-14T05:43:58.229Z,97.30
2023-10-14T05:46:25.063Z,97.50
2023-10-14T05:48:54.783Z,97.60
2023-10-14T05:51:21.518Z,97.80
2023-10-14T05:53:49.830Z,97.90
2023-10-14T05:56:17.057Z,98.00
2023-10-14T05:58:44.143Z,98.10
2023-10-14T06:01:11.679Z,98.00
2023-10-14T06:03:38.925Z,98.20
2023-10-14T06:06:11.969Z,98.10
2023-10-14T06:08:38.672Z,98.20
2023-10-14T06:11:06.677Z,98.20
2023-10-14T06:13:36.469Z,98.30
2023-10-14T06:16:12.843Z,98.40
2023-10-14T06:18:40.212Z,98.30
2023-10-14T06:21:08.080Z,98.40
2023-10-14T06:23:35.405Z,98.40
2023-10-14T06:26:02.097Z,98.40
2023-10-14T06:28:32.092Z,98.50
2023-10-14T06:31:02.027Z,98.40
2023-10-14T06:33:30.364Z,98.40
2023-10-14T06:36:04.900Z,98.30
2023-10-14T06:38:34.821Z,98.20
2023-10-14T06:41:04.603Z,98.30
2023-10-14T06:43:35.054Z,98.20
2023-10-14T06:46:06.088Z,98.10
2023-10-14T06:48:33.856Z,98.00
2023-10-14T06:51:00.602Z,98.10
2023-10-14T06:53:29.930Z,98.00
2023-10-14T06:56:01.971Z,97.80
2023-10-14T06:58:29.984Z,97.70
2023-10-14T07:00:58.402Z,97.70
2023-10-14T07:03:26.050Z,97.40
2023-10-14T07:05:55.969Z,96.90
2023-10-14T07:08:23.068Z,96.80
2023-10-14T07:10:51.600Z,96.80
2023-10-14T07:13:19.083Z,96.70
2023-10-14T07:15:46.039Z,95.40
2023-10-14T07:18:15.681Z,95.10
2023-10-14T07:20:43.398Z,95.10
2023-10-14T07:23:10.188Z,95.60
2023-10-14T07:25:39.181Z,96.00
2023-10-14T07:28:08.750Z,96.10
2023-10-14T07:30:36.253Z,96.20
2023-10-14T07:33:05.671Z,96.40
2023-10-14T07:35:32.553Z,96.30
2023-10-14T07:37:59.863Z,96.30
2023-10-14T07:40:31.952Z,96.40
2023-10-14T07:43:14.403Z,96.50
2023-10-14T07:45:45.242Z,93.00
2023-10-14T07:48:13.138Z,90.20
2023-10-14T07:50:40.509Z,87.30
2023-10-14T07:53:14.148Z,83.10
2023-10-14T07:55:44.618Z,85.70
2023-10-14T07:58:12.146Z,86.90
2023-10-14T08:00:40.707Z,86.30
2023-10-14T08:03:09.021Z,85.20
2023-10-14T08:05:41.390Z,85.40
2023-10-14T08:08:09.892Z,85.50
2023-10-14T08:10:37.370Z,86.10
2023-10-14T08:13:06.028Z,85.30
2023-10-14T08:15:33.217Z,84.20
2023-10-14T08:18:01.587Z,81.60
2023-10-14T08:20:29.435Z,81.50
2023-10-14T08:22:56.819Z,79.60
2023-10-14T08:25:26.325Z,79.00
2023-10-14T08:27:54.902Z,78.70
2023-10-14T08:30:25.269Z,80.50
2023-10-14T08:32:55.921Z,83.60
2023-10-14T08:35:28.441Z,87.80
2023-10-14T08:37:56.234Z,90.00
2023-10-14T08:40:24.045Z,90.70
2023-10-14T08:42:51.750Z,91.10
2023-10-14T08:45:19.354Z,91.80
2023-10-14T08:47:46.599Z,92.80
2023-10-14T08:50:16.393Z,93.20
2023-10-14T08:52:46.581Z,93.40
2023-10-14T08:55:14.726Z,93.40
2023-10-14T08:57:42.204Z,93.30
2023-10-14T09:00:13.603Z,93.90
2023-10-14T09:02:41.264Z,94.00
2023-10-14T09:05:12.693Z,94.00
2023-10-14T09:07:42.508Z,92.80
2023-10-14T09:10:09.286Z,92.00
2023-10-14T09:12:36.100Z,92.50
2023-10-14T09:15:03.122Z,92.70
2023-10-14T09:17:30.171Z,93.50
2023-10-14T09:19:57.753Z,93.60
2023-10-14T09:22:28.091Z,94.10
2023-10-14T09:24:59.106Z,94.70
2023-10-14T09:27:27.478Z,93.40
2023-10-14T09:29:58.253Z,93.60
2023-10-14T09:32:25.619Z,94.20
2023-10-14T09:34:52.732Z,93.70
2023-10-14T09:37:22.897Z,91.90
2023-10-14T09:39:50.628Z,90.60
2023-10-14T09:42:17.729Z,91.30
2023-10-14T09:44:44.496Z,92.30
2023-10-14T09:47:14.872Z,93.30
2023-10-14T09:49:42.977Z,94.00
2023-10-14T09:52:15.776Z,94.30
2023-10-14T09:54:43.383Z,94.70
2023-10-14T09:57:13.858Z,94.10
2023-10-14T09:59:43.686Z,94.00
2023-10-14T10:02:11.120Z,95.10
2023-10-14T10:04:39.732Z,96.20
2023-10-14T10:07:06.494Z,96.60
2023-10-14T10:09:54.141Z,97.30
2023-10-14T10:12:22.033Z,97.60
2023-10-14T10:14:49.279Z,98.40
2023-10-14T10:17:16.725Z,99.30
2023-10-14T10:19:58.518Z,99.90
2023-10-14T10:22:25.358Z,99.90
2023-10-14T10:24:55.146Z,99.90
2023-10-14T10:27:22.117Z,99.90
2023-10-14T10:29:53.191Z,99.90
2023-10-14T10:32:22.413Z,99.90
2023-10-14T10:35:07.617Z,99.90
2023-10-14T10:37:39.022Z,99.90
2023-10-14T10:40:11.617Z,99.90
2023-10-14T10:42:39.107Z,99.90
2023-10-14T10:45:09.947Z,99.90
2023-10-14T10:47:46.723Z,99.90
2023-10-14T10:50:16.556Z,99.90
2023-10-14T10:52:43.413Z,99.90
2023-10-14T10:55:11.628Z,99.90
2023-10-14T10:57:40.231Z,99.90
2023-10-14T11:00:10.819Z,99.90
2023-10-14T11:02:37.688Z,99.90
2023-10-14T11:05:04.565Z,99.90
2023-10-14T11:07:33.828Z,99.90
2023-10-14T11:10:01.716Z,99.90
2023-10-14T11:12:28.453Z,99.90
2023-10-14T11:14:55.196Z,99.90
2023-10-14T11:17:27.975Z,99.90
2023-10-14T11:19:54.926Z,99.90
2023-10-14T11:22:21.736Z,99.90
2023-10-14T11:24:48.575Z,99.90
2023-10-14T11:27:15.258Z,99.90
2023-10-14T11:29:41.948Z,99.90
2023-10-14T11:32:09.890Z,99.90
2023-10-14T11:34:39.546Z,99.90
2023-10-14T11:37:12.129Z,99.90
2023-10-14T11:39:39.002Z,99.90
2023-10-14T11:42:05.649Z,99.90
2023-10-14T11:44:32.446Z,99.90
2023-10-14T11:46:59.548Z,99.90
2023-10-14T11:49:27.337Z,99.90
2023-10-14T11:51:54.674Z,99.90
2023-10-14T11:54:24.810Z,99.90
2023-10-14T11:56:51.514Z,99.90
2023-10-14T11:59:18.459Z,99.90
2023-10-14T12:01:46.757Z,99.90
2023-10-14T12:04:16.421Z,99.90
2023-10-14T12:06:43.717Z,99.90
2023-10-14T12:09:11.829Z,99.90
2023-10-14T12:11:44.754Z,99.90
2023-10-14T12:14:17.720Z,99.90
2023-10-14T12:16:44.851Z,99.90
2023-10-14T12:19:21.433Z,99.90
2023-10-14T12:21:49.379Z,99.90
2023-10-14T12:24:16.096Z,99.90
2023-10-14T12:26:46.894Z,99.90
2023-10-14T12:29:13.941Z,99.90
2023-10-14T12:31:46.091Z,99.90
2023-10-14T12:34:14.642Z,99.90
2023-10-14T12:36:42.444Z,99.90
2023-10-14T12:39:34.372Z,99.90
2023-10-14T12:42:04.690Z,99.90
2023-10-14T12:44:34.174Z,99.90
2023-10-14T12:47:12.000Z,99.90
2023-10-14T12:49:39.541Z,99.90
2023-10-14T12:52:13.674Z,99.90
2023-10-14T12:54:40.759Z,99.90
2023-10-14T12:57:09.306Z,99.90
2023-10-14T12:59:41.387Z,99.90
2023-10-14T13:02:10.210Z,99.90
2023-10-14T13:04:43.068Z,99.90
2023-10-14T13:07:10.207Z,99.90
2023-10-14T13:09:37.480Z,99.90
2023-10-14T13:12:17.423Z,99.90
2023-10-14T13:14:44.827Z,99.90
2023-10-14T13:17:12.039Z,99.90
2023-10-14T13:19:38.842Z,99.90
2023-10-14T13:22:11.394Z,99.90
2023-10-14T13:24:38.851Z,99.90
2023-10-14T13:27:05.745Z,99.90
2023-10-14T13:29:32.568Z,99.90
2023-10-14T13:32:00.546Z,99.90
2023-10-14T13:34:27.452Z,99.90
2023-10-14T13:36:58.422Z,99.90
2023-10-14T13:39:26.493Z,99.90
2023-10-14T13:41:55.444Z,99.90
2023-10-14T13:44:22.397Z,99.90
2023-10-14T13:46:49.348Z,99.90
2023-10-14T13:49:24.862Z,99.90
2023-10-14T13:51:55.289Z,99.90
2023-10-14T13:54:22.873Z,99.90
2023-10-14T13:56:49.708Z,99.90
2023-10-14T13:59:16.425Z,99.90
2023-10-14T14:01:44.018Z,99.90
2023-10-14T14:04:18.281Z,99.90
2023-10-14T14:06:45.453Z,99.90
2023-10-14T14:09:12.224Z,99.90
2023-10-14T14:11:38.900Z,99.90
2023-10-14T14:14:05.499Z,99.90
2023-10-14T14:16:32.200Z,99.90
2023-10-14T14:19:01.365Z,99.90
2023-10-14T14:21:28.154Z,99.90
2023-10-14T14:23:55.985Z,99.90
2023-10-14T14:26:22.809Z,99.90
2023-10-14T14:28:52.191Z,99.90
2023-10-14T14:31:19.016Z,99.90
2023-10-14T14:33:46.865Z,99.90
2023-10-14T14:36:13.777Z,99.90
2023-10-14T14:38:40.905Z,99.90
2023-10-14T14:41:14.140Z,99.90
2023-10-14T14:43:42.595Z,99.90
2023-10-14T14:46:09.958Z,99.90
2023-10-14T14:48:37.141Z,99.90
2023-10-14T14:51:05.253Z,99.90
2023-10-14T14:53:32.396Z,99.90
2023-10-14T14:56:00.514Z,99.90
2023-10-14T14:58:27.534Z,99.90
2023-10-14T15:00:54.394Z,99.90
2023-10-14T15:03:21.979Z,99.90
2023-10-14T15:05:51.458Z,99.90
2023-10-14T15:08:19.639Z,99.90
2023-10-14T15:10:46.840Z,99.90
2023-10-14T15:13:15.047Z,99.90
2023-10-14T15:15:50.936Z,99.90
2023-10-14T15:18:18.216Z,99.90
2023-10-14T15:20:46.692Z,99.90
2023-10-14T15:23:16.194Z,99.90
2023-10-14T15:25:43.150Z,99.90
2023-10-14T15:28:10.115Z,99.90
2023-10-14T15:30:37.301Z,99.90
2023-10-14T15:33:07.059Z,99.90
2023-10-14T15:35:34.741Z,99.90
2023-10-14T15:38:06.011Z,99.90
2023-10-14T15:40:33.874Z,99.90
2023-10-14T15:43:02.210Z,99.90
2023-10-14T15:45:30.363Z,99.90
2023-10-14T15:47:58.608Z,99.90
2023-10-14T15:50:26.271Z,99.90
2023-10-14T15:52:57.835Z,99.90
2023-10-14T15:55:28.135Z,99.90
2023-10-14T15:57:58.189Z,99.90
2023-10-14T16:00:26.264Z,99.90
2023-10-14T16:02:55.781Z,99.90
2023-10-14T16:05:22.687Z,99.90
2023-10-14T16:07:50.651Z,99.90
2023-10-14T16:10:17.462Z,99.90
2023-10-14T16:12:44.212Z,99.90
2023-10-14T16:15:20.208Z,99.90
2023-10-14T16:17:53.161Z,99.90
2023-10-14T16:20:21.774Z,99.90
2023-10-14T16:22:49.817Z,99.90
2023-10-14T16:25:18.197Z,99.90
2023-10-14T16:27:45.230Z,99.90
2023-10-14T16:30:18.731Z,99.90
2023-10-14T16:32:46.209Z,99.90
2023-10-14T16:35:15.100Z,99.90
2023-10-14T16:37:42.364Z,99.90
2023-10-14T16:40:19.462Z,99.90
2023-10-14T16:42:50.256Z,99.90
2023-10-14T16:45:17.088Z,99.90
2023-10-14T16:47:45.417Z,99.90
2023-10-14T16:50:16.470Z,99.90
2023-10-14T16:52:48.509Z,99.90
2023-10-14T16:55:15.933Z,99.90
2023-10-14T16:57:45.957Z,99.90
2023-10-14T17:00:13.743Z,99.90
2023-10-14T17:02:43.621Z,99.90
2023-10-14T17:05:14.858Z,99.90
2023-10-14T17:07:43.248Z,99.90
2023-10-14T17:10:10.774Z,99.90
2023-10-14T17:12:38.393Z,99.90
2023-10-14T17:15:10.506Z,99.90
2023-10-14T17:17:37.456Z,99.90
2023-10-14T17:20:13.123Z,99.90
2023-10-14T17:22:43.503Z,99.90
2023-10-14T17:25:10.764Z,99.90
2023-10-14T17:27:40.955Z,99.90
2023-10-14T17:30:08.381Z,99.90
2023-10-14T17:32:36.031Z,99.90
2023-10-14T17:35:02.869Z,99.90
2023-10-14T17:37:29.757Z,99.90
2023-10-14T17:39:58.169Z,99.90
2023-10-14T17:42:25.542Z,99.90
2023-10-14T17:44:53.203Z,99.90
2023-10-14T17:47:20.053Z,99.90
2023-10-14T17:49:47.314Z,99.90
2023-10-14T17:52:15.183Z,99.90
2023-10-14T17:54:41.819Z,99.90
2023-10-14T17:57:10.406Z,99.90
2023-10-14T17:59:38.428Z,99.90
2023-10-14T18:02:06.500Z,99.90
2023-10-14T18:04:33.774Z,99.90
2023-10-14T18:07:02.041Z,99.90
2023-10-14T18:09:28.765Z,99.90
2023-10-14T18:11:55.689Z,99.90
2023-10-14T18:14:22.442Z,99.90
2023-10-14T18:17:03.129Z,99.90
2023-10-14T18:19:30.980Z,99.90
2023-10-14T18:21:59.077Z,99.90
2023-10-14T18:24:25.896Z,99.90
2023-10-14T18:26:52.578Z,99.90
2023-10-14T18:29:22.251Z,99.90
2023-10-14T18:31:49.996Z,99.90
2023-10-14T18:34:16.802Z,99.90
2023-10-14T18:36:43.583Z,99.90
2023-10-14T18:39:12.048Z,99.90
2023-10-14T18:41:39.778Z,99.90
2023-10-14T18:44:08.943Z,99.90
2023-10-14T18:46:35.755Z,99.90
2023-10-14T18:49:04.719Z,99.90
2023-10-14T18:51:34.161Z,99.90
2023-10-14T18:54:00.969Z,99.90
2023-10-14T18:56:29.312Z,99.90
2023-10-14T18:58:57.116Z,99.90
2023-10-14T19:01:24.479Z,99.90
2023-10-14T19:03:51.531Z,99.90
2023-10-14T19:06:18.950Z,99.90
2023-10-14T19:08:45.665Z,99.90
2023-10-14T19:11:13.529Z,99.90
2023-10-14T19:13:40.392Z,99.90
2023-10-14T19:16:09.071Z,99.90
2023-10-14T19:18:36.881Z,99.90
2023-10-14T19:21:05.594Z,99.90
2023-10-14T19:23:33.604Z,99.90
2023-10-14T19:26:02.984Z,99.90
2023-10-14T19:28:29.835Z,99.90
2023-10-14T19:31:08.005Z,99.90
2023-10-14T19:33:36.755Z,99.90
2023-10-14T19:36:07.007Z,99.90
2023-10-14T19:38:33.812Z,99.90
2023-10-14T19:41:05.565Z,99.90
2023-10-14T19:43:36.948Z,99.90
2023-10-14T19:46:10.962Z,99.90
2023-10-14T19:48:42.241Z,99.90
2023-10-14T19:51:12.939Z,99.90
2023-10-14T19:53:40.120Z,99.90
2023-10-14T19:56:12.002Z,99.90
2023-10-14T19:58:39.160Z,99.90
2023-10-14T20:01:09.558Z,99.90
2023-10-14T20:03:37.402Z,99.90
2023-10-14T20:06:05.585Z,99.90
2023-10-14T20:08:34.725Z,99.90
2023-10-14T20:11:01.511Z,99.90
2023-10-14T20:13:28.251Z,99.90
2023-10-14T20:15:56.201Z,99.90
2023-10-14T20:18:23.073Z,99.90
2023-10-14T20:20:53.197Z,99.90
2023-10-14T20:23:20.173Z,99.90
2023-10-14T20:25:51.206Z,99.90
2023-10-14T20:28:18.684Z,99.90
2023-10-14T20:30:47.071Z,99.90
2023-10-14T20:33:19.806Z,99.90
2023-10-14T20:35:46.751Z,99.90
2023-10-14T20:38:14.411Z,99.90
2023-10-14T20:40:42.306Z,99.90
2023-10-14T20:43:09.617Z,99.90
2023-10-14T20:45:38.836Z,99.90
2023-10-14T20:48:06.045Z,99.90
2023-10-14T20:50:39.558Z,99.90
2023-10-14T20:53:07.033Z,99.90
2023-10-14T20:55:35.139Z,99.90
2023-10-14T20:58:03.044Z,99.90
2023-10-14T21:00:35.757Z,99.90
2023-10-14T21:03:10.476Z,99.90
2023-10-14T21:05:41.788Z,99.90
2023-10-14T21:08:17.185Z,99.90
2023-10-14T21:10:44.649Z,99.90
2023-10-14T21:13:11.973Z,99.90
2023-10-14T21:15:42.227Z,99.90
2023-10-14T21:18:09.671Z,99.90
2023-10-14T21:20:42.459Z,99.90
2023-10-14T21:23:13.619Z,99.90
2023-10-14T21:25:40.911Z,99.90
2023-10-14T21:28:08.274Z,99.90
2023-10-14T21:30:36.153Z,99.90
2023-10-14T21:33:05.760Z,99.90
2023-10-14T21:35:36.403Z,99.90
2023-10-14T21:38:04.025Z,99.90
2023-10-14T21:40:31.921Z,99.90
2023-10-14T21:42:59.287Z,99.90
2023-10-14T21:45:29.526Z,99.90
2023-10-14T21:47:56.215Z,99.90
2023-10-14T21:50:23.292Z,99.90
2023-10-14T21:52:53.624Z,99.90
2023-10-14T21:55:22.880Z,99.90
2023-10-14T21:57:53.680Z,99.90
2023-10-14T22:00:31.101Z,99.90
2023-10-14T22:02:57.960Z,99.90
2023-10-14T22:05:26.436Z,99.90
2023-10-14T22:07:53.775Z,99.90
2023-10-14T22:10:26.933Z,99.90
2023-10-14T22:12:54.638Z,99.90
2023-10-14T22:15:28.342Z,99.90
2023-10-14T22:17:56.284Z,99.90
2023-10-14T22:20:23.395Z,99.90
2023-10-14T22:22:51.134Z,99.90
2023-10-14T22:25:18.480Z,99.90
2023-10-14T22:27:48.501Z,99.90
2023-10-14T22:30:15.882Z,99.90
2023-10-14T22:32:42.981Z,99.90
2023-10-14T22:35:09.899Z,99.90
2023-10-14T22:37:38.545Z,99.90
2023-10-14T22:40:05.948Z,99.90
2023-10-14T22:42:32.789Z,99.90
2023-10-14T22:44:59.453Z,99.90
2023-10-14T22:47:26.372Z,99.90
2023-10-14T22:49:53.232Z,99.90
2023-10-14T22:52:19.924Z,99.90
2023-10-14T22:54:48.233Z,99.90
2023-10-14T22:57:14.890Z,99.90
2023-10-14T22:59:42.837Z,99.90
2023-10-14T23:02:10.250Z,99.90
2023-10-14T23:04:37.116Z,99.90
2023-10-14T23:07:04.657Z,99.90
2023-10-14T23:09:32.852Z,99.90
2023-10-14T23:12:00.019Z,99.90
2023-10-14T23:14:26.823Z,99.90
2023-10-14T23:16:53.648Z,99.90
2023-10-14T23:19:20.353Z,99.90
2023-10-14T23:21:47.055Z,99.90
2023-10-14T23:24:14.881Z,99.90
2023-10-14T23:26:42.334Z,99.90
2023-10-14T23:29:09.108Z,99.90
2023-10-14T23:31:37.532Z,99.90
2023-10-14T23:34:04.486Z,99.90
2023-10-14T23:36:33.157Z,99.90
2023-10-14T23:39:00.181Z,99.90
2023-10-14T23:41:27.938Z,99.90
2023-10-14T23:43:54.838Z,99.90
2023-10-14T23:46:21.720Z,99.90
2023-10-14T23:48:48.433Z,99.90
2023-10-14T23:51:15.162Z,99.90
2023-10-14T23:53:42.381Z,99.90
2023-10-14T23:56:14.338Z,99.90
2023-10-14T23:58:42.231Z,99.90
